Página principal
METAR-TAF:

METAR-TAF

Aeroportos :

Aeroporto Internacional Ibrahim Nasir

Malé, Maldivas

latitude: 04-12N, longitude: 073-32E, altura: 2 m

Observação actual do tempo

O boletim foi feito há 26 minutos, às 14:00 UTC
Vento 9 kt de noroeste
Temperatura 29°C
Humidade 79%
Pressão 1009 hPa
Visibilidade 10 km ou mais
Poucas nuvensa uma altura de 1800 ft
Nuvens fragmentadasa uma altura de 28000 ft

METAR: VRMM 181400Z 31009KT 9999 FEW018 BKN280 29/25 Q1009 NOSIG

Hora: 19:26 (14:26 UTC)

Previsão

O boletim foi feito há 9 horas e 26 minutos, às 05:00 UTC
Previsão válida de 18 às 06 UTC a 19 às 12 UTC
Vento 14 kt de oes-noroeste
Visibilidade 10 km ou mais
Poucas nuvensa uma altura de 1800 ft
Temporariamente
de 18 às 09 UTC a 18 às 15 UTC
Visibilidade: 5000 m
Poucas nuvensa uma altura de 1700 ft, Cumulonimbus.
aguaceiros fracos de chuva

TAF: VRMM 180500Z 1806/1912 29014KT 9999 FEW018 TEMPO 1809/1815 5000 -SHRA FEW017CB

Observações e previsões do tempo de mais de 4000 aeroportos (mensagens METAR e TAF).

As estações disponíveis são os pontos amarelos e vermelhos sobre o mapa.

Mova o rato sobre o mapa para ver o nome da estação.

Depois clique no ponto para visualizar as observações e previsões meteorológicas.

Para alterar o mapa : clique nos botões verdes com uma cruz preta para aumentar o zoom; no botão verde com uma pitada de zoom; ou nas setas verdes para mapas adjacentes.


METAR-TAF: